Time;durP1;ratioP1;P1;durP2;ratioP2;P2;SDS_P1;SDS_P2;PMS_P1;PMS_P2;Temp;Humidity;BMP_temperature;BMP_pressure;BME280_temperature;BME280_humidity;BME280_pressure;Samples;Min_cycle;Max_cycle;Signal;HPM_P1;HPM_P2
2023/01/04 00:01:58;;;;;;;7.72;3.40;;;21.20;60.00;;;;;;6086006;29;20052;-52
2023/01/04 00:05:00;;;;;;;6.07;2.75;;;21.30;60.10;;;;;;6086838;29;20061;-52
2023/01/04 00:08:02;;;;;;;7.10;2.45;;;21.20;60.10;;;;;;6088392;29;20049;-51
2023/01/04 00:11:05;;;;;;;8.57;2.95;;;21.20;60.20;;;;;;6088112;29;20085;-52
2023/01/04 00:14:10;;;;;;;6.45;2.30;;;21.20;60.30;;;;;;6159813;23;20032;-51
2023/01/04 00:17:12;;;;;;;7.38;2.67;;;21.30;60.40;;;;;;6108781;23;20056;-53
2023/01/04 00:20:23;;;;;;;12.50;3.60;;;21.20;60.40;;;;;;6250630;23;20060;-52
2023/01/04 00:23:25;;;;;;;9.10;2.97;;;21.30;60.50;;;;;;6086729;29;20032;-52
2023/01/04 00:26:28;;;;;;;7.35;2.97;;;21.30;60.60;;;;;;6086973;29;20029;-52
2023/01/04 00:54:06;;;;;;;8.43;3.03;;;21.20;60.90;;;;;;6770889;23;20104;-51
2023/01/04 01:11:35;;;;;;;12.32;4.00;;;21.20;61.70;;;;;;7390311;23;20027;-49
2023/01/04 02:25:13;;;;;;;7.95;2.33;;;21.10;61.50;;;;;;6871180;23;20282;-53
2023/01/04 02:35:31;;;;;;;7.78;2.38;;;20.30;60.80;;;;;;7245082;23;21236;-49
2023/01/04 02:45:56;;;;;;;5.95;2.05;;;21.20;61.00;;;;;;7127631;23;20914;31
2023/01/04 02:52:17;;;;;;;4.60;1.80;;;21.20;60.80;;;;;;6438112;23;20052;-52
2023/01/04 03:06:15;;;;;;;3.88;1.00;;;21.10;60.20;;;;;;7305413;23;20032;-51
2023/01/04 03:09:20;;;;;;;3.35;1.40;;;21.30;60.30;;;;;;6090737;29;20032;-52
2023/01/04 03:12:51;;;;;;;5.30;1.40;;;21.10;60.10;;;;;;6746001;23;20105;31
2023/01/04 03:15:57;;;;;;;3.80;1.10;;;20.90;60.00;;;;;;6882799;24;20093;-52
2023/01/04 03:50:56;;;;;;;1.70;0.55;;;21.20;59.40;;;;;;6098287;29;20049;-51
2023/01/04 03:54:03;;;;;;;2.03;0.70;;;21.20;59.30;;;;;;6112498;29;20048;-52
2023/01/04 03:57:05;;;;;;;1.00;0.57;;;21.20;59.30;;;;;;6112178;29;20032;-51
2023/01/04 04:11:29;;;;;;;1.02;0.40;;;21.20;59.10;;;;;;6111954;29;20060;-52
2023/01/04 04:14:31;;;;;;;1.40;0.52;;;21.20;59.00;;;;;;6111715;29;20096;-52
2023/01/04 04:17:32;;;;;;;;;;;21.10;59.00;;;;;;6112576;29;20056;-50
2023/01/04 04:20:34;;;;;;;1.48;0.57;;;21.10;59.00;;;;;;6111930;29;19932;-51
2023/01/04 04:23:36;;;;;;;1.63;0.70;;;21.30;59.00;;;;;;6095594;29;20032;-53
2023/01/04 04:26:38;;;;;;;0.70;0.35;;;21.10;58.90;;;;;;6111652;29;20032;-52
2023/01/04 04:29:39;;;;;;;1.80;0.60;;;21.10;58.90;;;;;;6111720;29;20044;-52
2023/01/04 04:32:41;;;;;;;0.80;0.40;;;21.20;58.90;;;;;;6111577;29;20084;-53
2023/01/04 04:35:43;;;;;;;1.10;0.40;;;21.20;58.90;;;;;;6494456;23;20060;-51
2023/01/04 04:38:45;;;;;;;1.33;0.63;;;21.20;58.90;;;;;;6087882;29;20041;-51
2023/01/04 04:41:46;;;;;;;1.85;0.68;;;21.10;58.80;;;;;;6088033;29;20057;-51
2023/01/04 04:44:48;;;;;;;;;;;21.20;58.90;;;;;;6087628;29;20086;-51
2023/01/04 04:47:49;;;;;;;0.80;0.40;;;21.10;58.90;;;;;;6072397;29;19914;-51
2023/01/04 04:54:17;;;;;;;1.27;0.30;;;21.10;58.70;;;;;;6266770;23;20061;-51
2023/01/04 04:57:19;;;;;;;0.60;0.40;;;21.10;58.80;;;;;;6088335;29;20029;-51
2023/01/04 05:00:20;;;;;;;1.33;0.70;;;21.20;58.90;;;;;;6087886;29;20029;-51
2023/01/04 05:03:22;;;;;;;;;;;21.10;58.80;;;;;;6087953;29;20025;-51
2023/01/04 05:06:23;;;;;;;0.70;0.30;;;21.40;59.00;;;;;;6087869;29;19908;-50
2023/01/04 05:09:25;;;;;;;1.52;0.73;;;21.10;58.80;;;;;;6087297;29;20052;-51
2023/01/04 05:19:04;;;;;;;2.08;0.80;;;21.20;59.00;;;;;;6196831;24;20037;-52
2023/01/04 05:22:05;;;;;;;2.72;0.80;;;21.10;59.60;;;;;;6087229;29;20049;-52
2023/01/04 05:25:08;;;;;;;1.80;0.60;;;21.20;59.00;;;;;;6519690;23;20088;-50
2023/01/04 05:28:10;;;;;;;3.30;1.27;;;21.20;59.10;;;;;;6086344;29;20045;-52
2023/01/04 05:31:11;;;;;;;;;;;21.00;59.00;;;;;;6087387;29;20057;-50
2023/01/04 05:37:44;;;;;;;1.93;0.77;;;21.10;59.00;;;;;;6626175;23;20053;-52
2023/01/04 05:40:47;;;;;;;1.58;0.63;;;21.20;59.10;;;;;;6087085;29;20057;-51
2023/01/04 05:43:48;;;;;;;2.03;1.13;;;21.10;59.10;;;;;;6086914;29;20032;-50
2023/01/04 05:46:50;;;;;;;;;;;21.20;59.20;;;;;;6087420;29;20044;-52
2023/01/04 05:49:52;;;;;;;0.90;0.45;;;21.10;59.20;;;;;;6429183;23;20670;-51
2023/01/04 05:52:54;;;;;;;1.88;0.60;;;21.10;59.00;;;;;;6129841;23;20037;-52
2023/01/04 05:55:56;;;;;;;1.95;0.75;;;21.10;59.10;;;;;;6086464;29;20036;-52
2023/01/04 05:58:57;;;;;;;1.45;0.80;;;21.20;59.20;;;;;;6086793;29;20037;-52
2023/01/04 06:01:59;;;;;;;1.92;0.80;;;20.90;59.10;;;;;;6085565;29;20056;-51
2023/01/04 06:05:00;;;;;;;3.20;0.90;;;21.20;59.20;;;;;;6085680;29;20433;-51
2023/01/04 06:08:02;;;;;;;;;;;21.20;59.20;;;;;;6086365;29;20029;-52
2023/01/04 06:11:04;;;;;;;0.80;0.47;;;21.20;59.30;;;;;;6086443;29;19915;-52
2023/01/04 06:14:05;;;;;;;0.93;0.52;;;21.20;59.20;;;;;;6085584;29;20025;-52
2023/01/04 06:17:08;;;;;;;;;;;21.10;59.20;;;;;;6086769;29;20044;-52
2023/01/04 06:20:10;;;;;;;1.08;0.60;;;21.10;59.30;;;;;;6086169;29;19975;-52
2023/01/04 06:30:11;;;;;;;1.15;0.50;;;21.10;59.80;;;;;;6917811;23;20061;-52
2023/01/04 06:36:44;;;;;;;0.70;0.32;;;19.80;58.50;;;;;;6798998;23;20033;-52
2023/01/04 06:39:45;;;;;;;1.60;0.70;;;21.10;59.20;;;;;;6085259;29;20049;-52
2023/01/04 06:46:19;;;;;;;0.95;0.50;;;21.10;59.20;;;;;;6155166;23;19947;-51
2023/01/04 06:49:20;;;;;;;0.68;0.30;;;21.20;59.20;;;;;;6069472;29;20126;-52
2023/01/04 06:52:22;;;;;;;0.88;0.43;;;21.10;59.30;;;;;;6080861;29;20064;-51
2023/01/04 06:55:23;;;;;;;;;;;21.20;59.30;;;;;;6078661;29;20052;-52
2023/01/04 06:58:24;;;;;;;0.90;0.40;;;21.30;59.70;;;;;;6080720;29;19923;-50
2023/01/04 07:01:26;;;;;;;;;;;21.20;59.30;;;;;;6082885;29;20033;-52
2023/01/04 07:04:28;;;;;;;0.68;0.30;;;21.20;59.40;;;;;;6081890;29;19924;-52
2023/01/04 07:07:29;;;;;;;;;;;21.20;59.30;;;;;;6080991;29;20052;-52
2023/01/04 07:10:31;;;;;;;0.90;0.30;;;21.30;59.40;;;;;;6086415;29;19934;-51
2023/01/04 07:13:32;;;;;;;;;;;21.10;59.20;;;;;;6086696;29;20029;-52
2023/01/04 07:16:34;;;;;;;0.75;0.28;;;21.30;59.40;;;;;;6087404;29;19908;-52
2023/01/04 07:19:36;;;;;;;1.08;0.55;;;21.00;59.20;;;;;;6222432;23;20122;-50
2023/01/04 07:22:37;;;;;;;0.60;0.25;;;21.20;59.30;;;;;;6817562;23;20053;-51
2023/01/04 07:36:06;;;;;;;1.23;0.15;;;21.20;59.40;;;;;;6316579;23;20044;-53
2023/01/04 07:49:55;;;;;;;1.90;0.35;;;19.70;58.70;;;;;;6214817;23;20052;-52
2023/01/04 07:53:00;;;;;;;0.50;0.20;;;21.30;59.50;;;;;;6505204;23;20037;-48
2023/01/04 07:56:02;;;;;;;0.93;0.38;;;21.40;59.60;;;;;;6691570;23;20022;-52
2023/01/04 08:02:35;;;;;;;1.48;0.25;;;21.30;59.50;;;;;;7154319;23;20028;-49
2023/01/04 08:05:37;;;;;;;2.78;0.40;;;21.40;59.60;;;;;;6044459;29;20057;-51
2023/01/04 08:08:39;;;;;;;;;;;21.50;59.60;;;;;;6052249;29;20045;-45
2023/01/04 08:11:41;;;;;;;0.68;0.38;;;21.50;59.70;;;;;;6010971;29;19912;-52
2023/01/04 08:14:42;;;;;;;;;;;21.40;59.50;;;;;;6058341;29;20053;-51
2023/01/04 08:17:44;;;;;;;0.80;0.40;;;21.50;59.50;;;;;;6044894;29;19935;-46
2023/01/04 08:20:45;;;;;;;0.32;0.20;;;21.60;59.50;;;;;;6043087;29;20115;-47
2023/01/04 08:23:47;;;;;;;;;;;21.50;59.60;;;;;;6046231;29;20053;-47
2023/01/04 08:26:48;;;;;;;0.82;0.32;;;21.60;59.70;;;;;;6038489;29;19924;-47
2023/01/04 08:29:50;;;;;;;;;;;21.60;59.60;;;;;;6042995;29;20050;-49
2023/01/04 08:32:52;;;;;;;0.45;0.15;;;21.70;59.70;;;;;;6218090;23;19927;-50
2023/01/04 08:35:54;;;;;;;2.67;0.30;;;21.70;59.70;;;;;;6066368;29;20073;-48
2023/01/04 08:38:57;;;;;;;0.75;0.30;;;21.50;59.80;;;;;;6063218;29;20045;-49
2023/01/04 08:42:03;;;;;;;0.30;0.20;;;21.60;60.00;;;;;;6060465;29;20497;-49
2023/01/04 08:45:20;;;;;;;2.30;0.30;;;21.80;60.10;;;;;;6060902;29;20045;-59
2023/01/04 08:48:21;;;;;;;1.67;0.30;;;21.70;61.40;;;;;;6040978;29;20045;-59
2023/01/04 08:51:26;;;;;;;0.55;0.20;;;21.90;61.40;;;;;;6057733;29;20076;-63
2023/01/04 08:54:28;;;;;;;;;;;21.90;60.80;;;;;;6062327;29;20406;-60
2023/01/04 08:57:29;;;;;;;0.45;0.20;;;21.80;60.40;;;;;;6060762;29;19980;-59
2023/01/04 09:00:30;;;;;;;;;;;22.00;60.20;;;;;;6058733;29;20069;-56
2023/01/04 09:03:32;;;;;;;0.30;0.20;;;22.10;60.20;;;;;;6058451;29;20411;-56
2023/01/04 09:06:35;;;;;;;0.50;0.30;;;21.90;59.70;;;;;;6060881;29;20052;-57
2023/01/04 09:09:37;;;;;;;0.75;0.40;;;22.00;59.70;;;;;;6043058;29;20045;-59
2023/01/04 09:12:38;;;;;;;1.48;0.30;;;22.20;59.80;;;;;;6058547;29;20478;-57
2023/01/04 09:15:40;;;;;;;;;;;21.90;59.50;;;;;;6040666;29;20041;-56
2023/01/04 09:18:42;;;;;;;3.22;0.22;;;22.10;59.70;;;;;;6057575;29;19924;-53
2023/01/04 09:21:44;;;;;;;3.50;0.40;;;22.10;59.50;;;;;;6040644;29;20056;-55
2023/01/04 09:24:46;;;;;;;0.65;0.20;;;22.30;59.60;;;;;;6056979;29;20125;-55
2023/01/04 09:27:47;;;;;;;0.45;0.20;;;22.10;59.30;;;;;;6056837;29;20410;-54
2023/01/04 09:30:49;;;;;;;0.60;0.20;;;22.80;59.70;;;;;;6056246;29;20044;-56
2023/01/04 09:33:50;;;;;;;;;;;22.40;59.30;;;;;;6056917;29;20049;-57
2023/01/04 09:37:12;;;;;;;0.47;0.20;;;22.20;59.20;;;;;;6042906;29;19923;-56
2023/01/04 09:40:20;;;;;;;0.40;0.30;;;22.10;59.00;;;;;;6057195;29;20052;-57
2023/01/04 09:43:23;;;;;;;0.82;0.38;;;22.10;58.90;;;;;;6039589;29;20049;-56
2023/01/04 09:46:29;;;;;;;0.20;0.10;;;22.50;59.10;;;;;;6057315;29;20382;-57
2023/01/04 09:49:39;;;;;;;1.33;0.20;;;22.40;59.00;;;;;;6056040;29;20061;-57
2023/01/04 09:52:50;;;;;;;3.17;1.15;;;22.50;59.10;;;;;;6055837;29;20037;-53
2023/01/04 09:55:55;;;;;;;0.20;0.10;;;22.10;58.80;;;;;;6056804;29;20041;-57
2023/01/04 09:58:59;;;;;;;0.40;0.15;;;21.90;58.70;;;;;;6040328;29;20045;-58
2023/01/04 10:02:03;;;;;;;0.70;0.20;;;22.10;58.80;;;;;;6055515;29;20060;-55
2023/01/04 10:05:07;;;;;;;0.50;0.22;;;22.10;58.70;;;;;;6039766;29;20045;-58
2023/01/04 10:08:15;;;;;;;1.42;0.30;;;22.50;58.90;;;;;;6038921;29;20116;-56
2023/01/04 10:11:28;;;;;;;0.10;0.10;;;22.20;58.70;;;;;;6038851;29;20124;-59
2023/01/04 10:14:44;;;;;;;0.28;0.20;;;22.40;58.70;;;;;;6055342;29;20052;-59
2023/01/04 10:18:00;;;;;;;1.15;0.10;;;22.30;58.60;;;;;;6056043;29;20057;-59
2023/01/04 10:21:32;;;;;;;0.43;0.17;;;22.30;58.70;;;;;;6041743;29;20546;-60
2023/01/04 10:24:46;;;;;;;0.32;0.20;;;22.70;58.50;;;;;;6055488;29;20514;-54
2023/01/04 10:28:00;;;;;;;2.30;0.20;;;22.30;58.30;;;;;;6055420;29;20048;-59
2023/01/04 10:31:08;;;;;;;0.38;0.20;;;22.60;58.40;;;;;;6055449;29;20049;-59
2023/01/04 10:34:34;;;;;;;0.20;0.10;;;22.30;58.20;;;;;;6041030;29;20113;-57
2023/01/04 10:37:37;;;;;;;0.45;0.15;;;22.40;58.30;;;;;;6054847;29;20045;-59
2023/01/04 10:40:40;;;;;;;0.88;0.35;;;22.10;58.20;;;;;;6055438;29;20041;-59
2023/01/04 10:43:48;;;;;;;0.73;0.32;;;22.50;58.20;;;;;;6056866;29;20116;-58
2023/01/04 10:47:14;;;;;;;0.20;0.20;;;22.60;58.30;;;;;;6044622;29;20112;-57
2023/01/04 10:50:21;;;;;;;2.35;0.47;;;22.40;58.10;;;;;;6027735;29;20049;-59
2023/01/04 10:53:26;;;;;;;0.45;0.20;;;22.70;58.10;;;;;;6059700;29;20041;-56
2023/01/04 10:56:31;;;;;;;1.23;0.20;;;22.90;58.20;;;;;;6043669;29;20041;-56
2023/01/04 10:59:40;;;;;;;0.30;0.20;;;23.00;58.20;;;;;;6043160;29;20394;-57
2023/01/04 11:02:46;;;;;;;0.32;0.28;;;21.70;57.50;;;;;;6059217;29;20049;-59
2023/01/04 11:05:53;;;;;;;0.45;0.20;;;22.40;57.80;;;;;;6059734;29;20041;-56
2023/01/04 11:09:01;;;;;;;0.32;0.20;;;22.60;57.80;;;;;;6058990;29;20049;-53
2023/01/04 11:12:05;;;;;;;0.40;0.17;;;22.70;57.90;;;;;;6058439;29;20498;-54
2023/01/04 11:15:08;;;;;;;1.23;0.20;;;22.70;57.90;;;;;;6058846;29;20060;-56
2023/01/04 11:18:12;;;;;;;1.02;0.10;;;22.70;57.90;;;;;;6058980;29;20087;-54
2023/01/04 11:21:19;;;;;;;0.57;0.17;;;22.60;57.90;;;;;;6059303;29;20144;-54
2023/01/04 11:24:22;;;;;;;1.25;0.20;;;22.60;57.90;;;;;;6058881;29;20045;-54
2023/01/04 11:27:42;;;;;;;0.30;0.10;;;22.70;57.80;;;;;;6058453;29;20467;-53
2023/01/04 11:30:54;;;;;;;0.20;0.20;;;22.60;57.90;;;;;;6059060;29;20045;-52
2023/01/04 11:33:57;;;;;;;0.17;0.17;;;22.60;57.90;;;;;;6058921;29;20052;-52
2023/01/04 11:36:58;;;;;;;1.02;0.17;;;22.50;57.90;;;;;;6043048;29;20045;-53
2023/01/04 11:40:21;;;;;;;1.55;0.38;;;22.60;58.10;;;;;;6058451;29;20109;-49
2023/01/04 11:43:23;;;;;;;0.35;0.20;;;22.60;58.00;;;;;;6058510;29;20053;-51
2023/01/04 11:46:26;;;;;;;0.43;0.20;;;22.60;57.90;;;;;;6042089;29;20466;-50
2023/01/04 11:49:33;;;;;;;0.22;0.20;;;22.60;58.00;;;;;;6041723;29;20077;-53
2023/01/04 11:52:37;;;;;;;0.88;0.20;;;22.50;57.90;;;;;;6057922;29;20136;-50
2023/01/04 11:55:38;;;;;;;1.02;0.20;;;22.60;57.90;;;;;;6058260;29;20052;-53
2023/01/04 11:58:41;;;;;;;0.32;0.20;;;22.50;57.90;;;;;;6058617;29;20117;-53
2023/01/04 12:01:45;;;;;;;0.40;0.20;;;22.60;57.90;;;;;;6041834;29;20148;-49
2023/01/04 12:04:48;;;;;;;0.10;0.10;;;22.60;57.80;;;;;;6058326;29;20456;-48
2023/01/04 12:07:50;;;;;;;0.30;0.10;;;22.40;57.70;;;;;;6041573;29;20418;-51
2023/01/04 12:10:52;;;;;;;0.20;0.10;;;22.60;57.80;;;;;;6058307;29;20467;-52
2023/01/04 12:13:53;;;;;;;;;;;22.60;57.80;;;;;;6058024;29;20067;-53
2023/01/04 12:17:02;;;;;;;1.10;0.10;;;22.50;57.80;;;;;;6058329;29;19923;-52
2023/01/04 12:20:13;;;;;;;0.93;0.40;;;22.50;57.70;;;;;;6058092;29;20045;-49
2023/01/04 12:23:22;;;;;;;0.88;0.30;;;22.40;57.70;;;;;;6041925;29;20049;-54
2023/01/04 12:26:23;;;;;;;0.20;0.10;;;22.50;57.80;;;;;;6057649;29;20045;-53
2023/01/04 12:29:42;;;;;;;0.28;0.10;;;22.50;57.80;;;;;;6058060;29;20467;-51
2023/01/04 12:32:45;;;;;;;0.30;0.20;;;22.50;57.80;;;;;;6057246;29;20060;-53
2023/01/04 12:35:58;;;;;;;0.75;0.40;;;22.50;57.90;;;;;;6057823;29;20080;-52
2023/01/04 12:39:04;;;;;;;0.40;0.20;;;22.50;57.90;;;;;;6041082;29;20064;-51
2023/01/04 12:42:14;;;;;;;0.65;0.20;;;22.40;57.90;;;;;;6059148;29;20045;-56
2023/01/04 12:45:19;;;;;;;0.68;0.20;;;22.40;57.90;;;;;;6041431;29;20487;-55
2023/01/04 12:52:18;;;;;;;1.15;0.10;;;22.60;58.10;;;;;;6042256;29;20049;-56
2023/01/04 12:55:54;;;;;;;0.15;0.10;;;22.60;58.00;;;;;;6043210;29;20406;-56
2023/01/04 12:59:10;;;;;;;0.20;0.20;;;22.50;57.90;;;;;;6056988;29;20052;-58
2023/01/04 13:02:29;;;;;;;0.22;0.17;;;22.60;57.90;;;;;;6058230;29;20096;-56
2023/01/04 13:05:35;;;;;;;0.10;0.10;;;22.70;57.90;;;;;;6056176;29;20075;-58
2023/01/04 13:08:57;;;;;;;0.20;0.10;;;22.70;57.90;;;;;;6043905;29;20116;-59
2023/01/04 13:12:13;;;;;;;0.20;0.10;;;22.60;57.90;;;;;;6056929;29;20502;-58
2023/01/04 13:15:21;;;;;;;0.30;0.10;;;22.60;57.90;;;;;;6041083;29;20041;-56
2023/01/04 13:18:33;;;;;;;0.10;0.10;;;22.70;57.90;;;;;;6056604;29;20045;-53
2023/01/04 13:21:39;;;;;;;0.22;0.10;;;22.60;57.90;;;;;;6056932;29;20045;-53
2023/01/04 13:24:44;;;;;;;0.25;0.10;;;22.70;57.80;;;;;;6039812;29;20080;-55
2023/01/04 13:28:01;;;;;;;0.30;0.13;;;23.00;58.00;;;;;;6056634;29;20037;-57
2023/01/04 13:31:02;;;;;;;0.13;0.10;;;22.60;57.80;;;;;;6030861;29;20527;-54
2023/01/04 13:34:04;;;;;;;0.10;0.10;;;22.80;57.80;;;;;;6057744;29;20045;-54
2023/01/04 13:37:14;;;;;;;0.20;0.20;;;22.80;57.80;;;;;;6056806;29;20056;-55
2023/01/04 13:40:23;;;;;;;0.00;0.00;;;22.60;57.50;;;;;;6034108;29;20052;-52
2023/01/04 13:43:51;;;;;;;0.60;0.10;;;22.90;57.50;;;;;;6061534;29;20049;-53
2023/01/04 13:46:55;;;;;;;0.25;0.15;;;22.90;57.40;;;;;;6076987;29;20036;-50
2023/01/04 13:49:56;;;;;;;0.73;0.20;;;22.80;57.50;;;;;;6075146;29;20049;-56
2023/01/04 13:52:58;;;;;;;;;;;22.90;57.50;;;;;;6058904;29;20520;-54
2023/01/04 13:56:18;;;;;;;0.50;0.20;;;22.70;57.50;;;;;;6061482;29;19948;-56
2023/01/04 13:59:20;;;;;;;0.10;0.10;;;22.80;57.50;;;;;;6040089;29;20048;-57
2023/01/04 14:02:22;;;;;;;0.45;0.13;;;22.90;57.50;;;;;;6058477;29;20105;-55
2023/01/04 14:05:24;;;;;;;1.63;0.20;;;22.90;57.50;;;;;;6063006;29;20045;-50
2023/01/04 14:08:31;;;;;;;1.02;0.17;;;23.00;57.50;;;;;;6072150;29;20045;-52
2023/01/04 14:14:56;;;;;;;0.10;0.10;;;22.90;57.30;;;;;;6067726;29;20041;-51
2023/01/04 14:17:58;;;;;;;0.20;0.10;;;23.00;57.30;;;;;;6063733;29;20045;-54
2023/01/04 14:20:59;;;;;;;0.10;0.10;;;23.10;57.40;;;;;;6064239;29;20036;-53
2023/01/04 14:24:01;;;;;;;;;;;23.00;57.30;;;;;;6065499;29;20045;-53
2023/01/04 14:27:33;;;;;;;0.75;0.20;;;22.70;57.10;;;;;;6067050;29;19924;-53
2023/01/04 14:30:34;;;;;;;0.10;0.10;;;23.20;57.30;;;;;;6039432;29;20040;-52
2023/01/04 14:33:41;;;;;;;0.95;0.20;;;23.10;57.20;;;;;;6064081;29;20093;-55
2023/01/04 14:36:43;;;;;;;1.23;0.20;;;23.00;57.00;;;;;;6064019;29;20048;-53
2023/01/04 14:39:45;;;;;;;1.75;0.10;;;23.00;57.00;;;;;;6063189;29;20044;-54
2023/01/04 14:42:46;;;;;;;0.30;0.10;;;23.00;57.00;;;;;;6063660;29;20041;-56
2023/01/04 14:45:48;;;;;;;;;;;23.00;56.90;;;;;;6063942;29;20052;-53
2023/01/04 14:48:49;;;;;;;1.17;0.20;;;22.90;56.90;;;;;;6063523;29;19972;-54
2023/01/04 14:51:52;;;;;;;0.65;0.20;;;23.10;57.00;;;;;;6063449;29;20044;-53
2023/01/04 14:54:54;;;;;;;0.20;0.20;;;23.10;57.00;;;;;;6063132;29;20041;-49
2023/01/04 14:57:56;;;;;;;0.20;0.17;;;23.00;56.90;;;;;;6063245;29;20045;-53
2023/01/04 15:00:57;;;;;;;0.57;0.20;;;23.00;56.90;;;;;;6063721;29;20049;-51
2023/01/04 15:03:59;;;;;;;;;;;23.00;56.90;;;;;;6063422;29;20044;-54
2023/01/04 15:07:00;;;;;;;1.45;0.22;;;22.90;56.90;;;;;;6062976;29;19930;-50
2023/01/04 15:10:05;;;;;;;0.55;0.25;;;23.00;56.90;;;;;;6063144;29;20405;-46
2023/01/04 15:13:07;;;;;;;0.38;0.38;;;22.80;56.80;;;;;;6030960;29;20060;-49
2023/01/04 15:16:11;;;;;;;0.43;0.17;;;23.10;57.00;;;;;;6062729;29;20077;-53
2023/01/04 15:19:12;;;;;;;0.98;0.10;;;22.80;56.80;;;;;;6046430;29;20073;-51
2023/01/04 15:22:14;;;;;;;1.48;0.10;;;23.00;56.90;;;;;;6046436;29;20056;-49
2023/01/04 15:25:16;;;;;;;;;;;23.00;56.90;;;;;;6063119;29;20049;-50
2023/01/04 15:28:20;;;;;;;1.15;0.10;;;22.90;56.90;;;;;;6061141;29;19992;-57
2023/01/04 15:31:23;;;;;;;0.80;0.38;;;23.00;56.90;;;;;;6059380;29;20097;-58
2023/01/04 15:34:33;;;;;;;0.20;0.10;;;22.80;56.90;;;;;;6059548;29;20040;-52
2023/01/04 15:37:35;;;;;;;0.10;0.10;;;23.00;56.90;;;;;;6059173;29;20052;-56
2023/01/04 15:40:37;;;;;;;0.28;0.20;;;23.00;56.80;;;;;;6058866;29;20120;-55
2023/01/04 15:43:39;;;;;;;0.43;0.25;;;23.00;56.80;;;;;;6058644;29;20053;-56
2023/01/04 15:46:40;;;;;;;;;;;23.30;56.80;;;;;;6059652;29;20056;-57
2023/01/04 15:49:42;;;;;;;0.20;0.10;;;23.10;56.70;;;;;;6058818;29;20051;-55
2023/01/04 15:52:43;;;;;;;0.30;0.20;;;23.20;56.60;;;;;;6059481;29;20407;-53
2023/01/04 15:55:45;;;;;;;0.38;0.10;;;23.20;56.60;;;;;;6058955;29;20056;-50
2023/01/04 15:58:50;;;;;;;0.65;0.20;;;23.20;56.50;;;;;;6058539;29;20045;-53
2023/01/04 16:01:52;;;;;;;0.28;0.20;;;23.20;56.50;;;;;;6041995;29;20045;-50
2023/01/04 16:04:54;;;;;;;0.63;0.13;;;23.10;56.40;;;;;;6058657;29;20049;-54
2023/01/04 16:07:55;;;;;;;1.30;0.20;;;23.20;56.40;;;;;;6058463;29;20049;-53
2023/01/04 16:10:58;;;;;;;0.22;0.20;;;23.10;56.30;;;;;;6058457;29;20076;-55
2023/01/04 16:13:59;;;;;;;0.55;0.10;;;23.20;56.30;;;;;;6062126;29;20049;-54
2023/01/04 16:17:01;;;;;;;0.52;0.20;;;23.10;56.20;;;;;;6058823;29;20074;-54
2023/01/04 16:20:03;;;;;;;0.10;0.10;;;23.20;56.20;;;;;;6063994;29;20490;-54
2023/01/04 16:23:04;;;;;;;0.80;0.20;;;23.30;56.10;;;;;;6044096;29;20049;-52
2023/01/04 16:26:08;;;;;;;;;;;23.30;56.10;;;;;;6064937;29;20410;-51
2023/01/04 16:29:11;;;;;;;1.35;0.38;;;23.30;56.20;;;;;;6063071;29;19931;-52
2023/01/04 16:32:13;;;;;;;0.47;0.20;;;23.20;56.10;;;;;;6061166;29;20122;-53
2023/01/04 16:35:14;;;;;;;0.10;0.10;;;23.20;56.10;;;;;;6058913;29;20045;-54
2023/01/04 16:38:16;;;;;;;0.25;0.10;;;23.30;56.10;;;;;;6059635;29;20069;-54
2023/01/04 16:41:20;;;;;;;0.30;0.10;;;23.30;56.60;;;;;;6059415;29;20053;-54
2023/01/04 16:44:22;;;;;;;0.85;0.20;;;23.20;55.90;;;;;;6052641;29;20045;-54
2023/01/04 16:47:23;;;;;;;0.45;0.15;;;23.30;55.90;;;;;;6070203;29;20040;-58
2023/01/04 16:50:25;;;;;;;1.58;0.43;;;23.40;55.90;;;;;;6047981;29;20563;-53
2023/01/04 16:53:26;;;;;;;;;;;23.30;55.80;;;;;;6061645;29;20467;-56
2023/01/04 16:56:28;;;;;;;0.20;0.20;;;23.20;55.70;;;;;;6058815;29;20417;-58
2023/01/04 16:59:30;;;;;;;0.98;0.30;;;23.40;62.30;;;;;;6041787;29;20045;-58
2023/01/04 17:02:31;;;;;;;0.40;0.20;;;23.20;62.00;;;;;;6059136;29;20521;-59
2023/01/04 17:05:38;;;;;;;0.17;0.10;;;23.40;61.60;;;;;;6058810;29;20074;-58
2023/01/04 17:08:39;;;;;;;0.80;0.28;;;23.40;61.40;;;;;;6067237;29;20059;-59
2023/01/04 17:11:55;;;;;;;1.05;0.20;;;23.50;61.40;;;;;;6058223;29;20053;-58
2023/01/04 17:15:17;;;;;;;0.35;0.20;;;23.50;61.40;;;;;;6033407;29;20041;-58
2023/01/04 17:18:39;;;;;;;0.60;0.30;;;23.10;61.10;;;;;;6031257;29;20187;-58
2023/01/04 17:21:41;;;;;;;0.73;0.30;;;23.30;61.20;;;;;;6040820;29;20494;-59
2023/01/04 17:24:42;;;;;;;0.65;0.30;;;23.30;60.90;;;;;;6057466;29;20072;-59
2023/01/04 17:27:44;;;;;;;1.85;0.40;;;23.30;61.30;;;;;;6057064;29;20491;-58
2023/01/04 17:30:46;;;;;;;1.25;0.30;;;23.20;61.20;;;;;;6057396;29;20052;-59
2023/01/04 17:33:48;;;;;;;0.60;0.20;;;23.00;61.10;;;;;;6062443;29;20072;-58
2023/01/04 17:36:50;;;;;;;0.55;0.20;;;23.20;60.90;;;;;;6059526;29;20045;-58
2023/01/04 17:39:51;;;;;;;;;;;23.30;61.10;;;;;;6058440;29;20482;-58
2023/01/04 17:42:53;;;;;;;0.82;0.20;;;23.20;61.30;;;;;;6056661;29;20409;-58
2023/01/04 17:45:54;;;;;;;0.30;0.25;;;23.10;61.00;;;;;;6057827;29;20447;-58
2023/01/04 17:48:57;;;;;;;0.60;0.20;;;23.10;61.00;;;;;;6056740;29;20101;-59
2023/01/04 17:52:19;;;;;;;0.20;0.20;;;23.00;60.70;;;;;;6042312;29;20402;-59
2023/01/04 17:55:33;;;;;;;0.30;0.20;;;22.90;60.90;;;;;;6056759;29;20573;-58
2023/01/04 17:58:35;;;;;;;0.60;0.30;;;23.00;60.70;;;;;;6024950;29;20500;-58
2023/01/04 18:01:37;;;;;;;0.25;0.20;;;23.10;60.70;;;;;;6057774;29;20363;-58
2023/01/04 18:04:38;;;;;;;0.32;0.17;;;22.80;60.60;;;;;;6058913;29;20055;-55
2023/01/04 18:07:39;;;;;;;;;;;22.90;60.70;;;;;;6059660;29;20045;-57
2023/01/04 18:10:41;;;;;;;0.15;0.13;;;23.30;61.20;;;;;;6058931;29;19923;-57
2023/01/04 18:14:03;;;;;;;;;;;23.00;60.40;;;;;;6044038;29;20569;-57
2023/01/04 18:17:13;;;;;;;0.73;0.10;;;23.20;60.70;;;;;;6057355;29;19923;-56
2023/01/04 18:20:15;;;;;;;0.22;0.20;;;22.80;60.00;;;;;;6057911;29;20112;-56
2023/01/04 18:23:28;;;;;;;0.60;0.20;;;22.80;60.30;;;;;;6058687;29;20052;-56
2023/01/04 18:26:30;;;;;;;0.30;0.20;;;22.70;60.00;;;;;;6062063;29;20041;-56
2023/01/04 18:29:53;;;;;;;0.50;0.28;;;22.80;60.20;;;;;;6048908;29;20037;-56
2023/01/04 18:32:55;;;;;;;0.35;0.20;;;22.80;60.10;;;;;;6029511;29;20097;-56
2023/01/04 18:36:00;;;;;;;0.90;0.30;;;22.80;60.20;;;;;;6060118;29;20049;-56
2023/01/04 18:39:01;;;;;;;0.30;0.30;;;22.90;60.00;;;;;;6059100;29;20490;-56
2023/01/04 18:42:03;;;;;;;;;;;22.80;60.10;;;;;;6058464;29;20072;-56
2023/01/04 18:45:06;;;;;;;0.22;0.20;;;22.80;60.20;;;;;;6058754;29;19924;-56
2023/01/04 18:48:07;;;;;;;0.85;0.20;;;22.90;59.90;;;;;;6057155;29;20053;-57
2023/01/04 18:51:11;;;;;;;;;;;22.80;60.00;;;;;;6057258;29;20045;-56
2023/01/04 18:54:19;;;;;;;0.65;0.30;;;23.00;60.30;;;;;;6058063;29;19931;-56
2023/01/04 18:57:20;;;;;;;0.25;0.22;;;22.70;59.80;;;;;;6057503;29;20113;-57
2023/01/04 19:00:28;;;;;;;;;;;22.70;59.80;;;;;;6058746;29;20131;-57
2023/01/04 19:03:30;;;;;;;0.50;0.32;;;22.70;59.80;;;;;;6059148;29;19923;-56
2023/01/04 19:06:31;;;;;;;0.30;0.20;;;22.70;59.10;;;;;;6045122;29;20041;-56
2023/01/04 19:09:33;;;;;;;;;;;22.60;59.00;;;;;;6062300;29;20105;-56
2023/01/04 19:12:37;;;;;;;0.65;0.30;;;22.90;59.50;;;;;;6061251;29;19964;-56
2023/01/04 19:15:42;;;;;;;0.30;0.20;;;22.30;58.70;;;;;;6060424;29;20056;-56
2023/01/04 19:18:48;;;;;;;0.52;0.32;;;22.60;59.00;;;;;;6060740;29;20049;-57
2023/01/04 19:21:50;;;;;;;;;;;22.60;59.00;;;;;;6060907;29;20517;-56
2023/01/04 19:24:51;;;;;;;0.22;0.20;;;22.90;59.30;;;;;;6060569;29;19924;-57
2023/01/04 19:27:53;;;;;;;0.28;0.20;;;22.60;58.90;;;;;;6060733;29;20049;-57
2023/01/04 19:30:54;;;;;;;;;;;22.60;58.90;;;;;;6061470;29;20049;-57
2023/01/04 19:33:56;;;;;;;0.40;0.20;;;22.90;59.30;;;;;;6061111;29;19924;-56
2023/01/04 19:36:57;;;;;;;;;;;22.60;59.00;;;;;;6059868;29;20053;-57
2023/01/04 19:39:59;;;;;;;0.60;0.30;;;22.10;58.80;;;;;;6059521;29;19975;-57
2023/01/04 19:43:00;;;;;;;;;;;22.40;59.00;;;;;;6059249;29;20417;-56
2023/01/04 19:46:07;;;;;;;0.47;0.32;;;22.40;58.90;;;;;;6058840;29;19987;-57
2023/01/04 19:49:10;;;;;;;0.38;0.20;;;22.40;58.60;;;;;;6059001;29;20123;-57
2023/01/04 19:52:16;;;;;;;0.43;0.20;;;22.50;58.60;;;;;;6058825;29;20057;-57
2023/01/04 19:55:18;;;;;;;0.30;0.20;;;22.50;58.70;;;;;;6058643;29;20056;-57
2023/01/04 19:58:19;;;;;;;;;;;22.40;58.50;;;;;;6059064;29;20075;-57
2023/01/04 20:01:22;;;;;;;0.40;0.20;;;22.10;58.60;;;;;;6059334;29;20073;-56
2023/01/04 20:04:26;;;;;;;0.70;0.30;;;22.50;58.50;;;;;;6042367;29;20124;-56
2023/01/04 20:07:27;;;;;;;0.20;0.20;;;22.30;58.40;;;;;;6059635;29;20052;-56
2023/01/04 20:10:29;;;;;;;;;;;22.50;58.60;;;;;;6061306;29;20498;-56
2023/01/04 20:13:32;;;;;;;0.20;0.20;;;21.90;58.60;;;;;;6061486;29;20380;-57
2023/01/04 20:16:34;;;;;;;0.20;0.20;;;22.40;58.50;;;;;;6043064;29;20118;-56